sensor_id;sensor_type;location;lat;lon;timestamp;P1;durP1;ratioP1;P2;durP2;ratioP2
15510;SDS011;7857;52.386;6.040;2023-07-02T00:03:54;3.53;;;2.29;;
15510;SDS011;7857;52.386;6.040;2023-07-02T00:03:54;4.88;;;2.49;;
15510;SDS011;7857;52.386;6.040;2023-07-02T00:04:47;4.99;;;2.49;;
15510;SDS011;7857;52.386;6.040;2023-07-02T00:05:48;3.18;;;2.36;;
15510;SDS011;7857;52.386;6.040;2023-07-02T00:06:48;3.75;;;2.35;;
15510;SDS011;7857;52.386;6.040;2023-07-02T00:07:49;2.75;;;2.21;;
15510;SDS011;7857;52.386;6.040;2023-07-02T00:08:49;4.48;;;2.72;;
15510;SDS011;7857;52.386;6.040;2023-07-02T00:09:50;3.93;;;2.50;;
15510;SDS011;7857;52.386;6.040;2023-07-02T00:10:50;3.31;;;2.23;;
15510;SDS011;7857;52.386;6.040;2023-07-02T00:11:51;3.28;;;2.40;;
15510;SDS011;7857;52.386;6.040;2023-07-02T00:12:51;4.39;;;2.28;;
15510;SDS011;7857;52.386;6.040;2023-07-02T00:13:52;3.80;;;2.71;;
15510;SDS011;7857;52.386;6.040;2023-07-02T00:14:52;4.09;;;2.32;;
15510;SDS011;7857;52.386;6.040;2023-07-02T00:15:53;4.53;;;2.39;;
15510;SDS011;7857;52.386;6.040;2023-07-02T00:16:53;6.54;;;2.93;;
15510;SDS011;7857;52.386;6.040;2023-07-02T00:17:53;9.32;;;3.03;;
15510;SDS011;7857;52.386;6.040;2023-07-02T00:18:53;6.00;;;2.67;;
15510;SDS011;7857;52.386;6.040;2023-07-02T00:19:53;4.01;;;2.83;;
15510;SDS011;7857;52.386;6.040;2023-07-02T00:20:54;5.50;;;2.78;;
15510;SDS011;7857;52.386;6.040;2023-07-02T00:21:54;5.97;;;3.14;;
15510;SDS011;7857;52.386;6.040;2023-07-02T00:22:55;6.20;;;2.91;;
15510;SDS011;7857;52.386;6.040;2023-07-02T00:23:55;3.79;;;3.02;;
15510;SDS011;7857;52.386;6.040;2023-07-02T00:24:56;4.61;;;2.51;;
15510;SDS011;7857;52.386;6.040;2023-07-02T00:25:56;4.46;;;2.96;;
15510;SDS011;7857;52.386;6.040;2023-07-02T00:26:57;4.78;;;2.80;;
15510;SDS011;7857;52.386;6.040;2023-07-02T00:27:58;4.80;;;2.34;;
15510;SDS011;7857;52.386;6.040;2023-07-02T00:28:58;4.44;;;2.42;;
15510;SDS011;7857;52.386;6.040;2023-07-02T00:29:59;3.71;;;2.54;;
15510;SDS011;7857;52.386;6.040;2023-07-02T00:30:59;5.41;;;2.62;;
15510;SDS011;7857;52.386;6.040;2023-07-02T00:32:00;3.52;;;2.29;;
15510;SDS011;7857;52.386;6.040;2023-07-02T00:33:01;4.37;;;2.57;;
15510;SDS011;7857;52.386;6.040;2023-07-02T00:34:02;4.17;;;2.46;;
15510;SDS011;7857;52.386;6.040;2023-07-02T00:35:02;6.21;;;2.76;;
15510;SDS011;7857;52.386;6.040;2023-07-02T00:36:02;6.22;;;2.84;;
15510;SDS011;7857;52.386;6.040;2023-07-02T00:37:03;4.43;;;2.76;;
15510;SDS011;7857;52.386;6.040;2023-07-02T00:38:03;6.04;;;2.71;;
15510;SDS011;7857;52.386;6.040;2023-07-02T00:39:04;4.29;;;3.00;;
15510;SDS011;7857;52.386;6.040;2023-07-02T00:40:05;5.59;;;3.07;;
15510;SDS011;7857;52.386;6.040;2023-07-02T00:41:05;4.82;;;3.27;;
15510;SDS011;7857;52.386;6.040;2023-07-02T00:42:06;7.01;;;3.16;;
15510;SDS011;7857;52.386;6.040;2023-07-02T00:43:06;6.00;;;2.96;;
15510;SDS011;7857;52.386;6.040;2023-07-02T00:44:06;7.17;;;3.30;;
15510;SDS011;7857;52.386;6.040;2023-07-02T00:45:08;5.34;;;3.42;;
15510;SDS011;7857;52.386;6.040;2023-07-02T00:46:07;5.46;;;3.48;;
15510;SDS011;7857;52.386;6.040;2023-07-02T00:47:08;7.20;;;3.46;;
15510;SDS011;7857;52.386;6.040;2023-07-02T00:48:09;7.38;;;3.39;;
15510;SDS011;7857;52.386;6.040;2023-07-02T00:49:09;7.49;;;3.26;;
15510;SDS011;7857;52.386;6.040;2023-07-02T00:50:10;7.75;;;3.75;;
15510;SDS011;7857;52.386;6.040;2023-07-02T00:51:10;10.50;;;3.92;;
15510;SDS011;7857;52.386;6.040;2023-07-02T00:52:11;6.17;;;3.18;;
15510;SDS011;7857;52.386;6.040;2023-07-02T00:53:11;10.07;;;3.64;;
15510;SDS011;7857;52.386;6.040;2023-07-02T00:54:12;7.42;;;3.80;;
15510;SDS011;7857;52.386;6.040;2023-07-02T00:55:12;9.11;;;4.08;;
15510;SDS011;7857;52.386;6.040;2023-07-02T00:56:13;12.00;;;4.51;;
15510;SDS011;7857;52.386;6.040;2023-07-02T00:57:13;8.66;;;4.39;;
15510;SDS011;7857;52.386;6.040;2023-07-02T00:58:14;9.40;;;4.00;;
15510;SDS011;7857;52.386;6.040;2023-07-02T00:59:14;11.04;;;4.45;;
15510;SDS011;7857;52.386;6.040;2023-07-02T01:00:15;12.45;;;4.53;;
15510;SDS011;7857;52.386;6.040;2023-07-02T01:01:15;14.27;;;4.77;;
15510;SDS011;7857;52.386;6.040;2023-07-02T01:02:15;10.38;;;4.39;;
15510;SDS011;7857;52.386;6.040;2023-07-02T01:03:16;11.94;;;4.79;;
15510;SDS011;7857;52.386;6.040;2023-07-02T01:04:17;10.67;;;4.53;;
15510;SDS011;7857;52.386;6.040;2023-07-02T01:05:16;13.53;;;4.67;;
15510;SDS011;7857;52.386;6.040;2023-07-02T01:06:17;12.18;;;5.33;;
15510;SDS011;7857;52.386;6.040;2023-07-02T01:07:18;10.82;;;4.69;;
15510;SDS011;7857;52.386;6.040;2023-07-02T01:08:18;12.63;;;5.51;;
15510;SDS011;7857;52.386;6.040;2023-07-02T01:09:19;11.51;;;4.74;;
15510;SDS011;7857;52.386;6.040;2023-07-02T01:10:19;11.09;;;5.67;;
15510;SDS011;7857;52.386;6.040;2023-07-02T01:11:20;13.70;;;5.45;;
15510;SDS011;7857;52.386;6.040;2023-07-02T01:12:20;9.36;;;5.17;;
15510;SDS011;7857;52.386;6.040;2023-07-02T01:13:21;13.81;;;5.63;;
15510;SDS011;7857;52.386;6.040;2023-07-02T01:14:22;14.62;;;5.39;;
15510;SDS011;7857;52.386;6.040;2023-07-02T01:15:21;16.04;;;5.56;;
15510;SDS011;7857;52.386;6.040;2023-07-02T01:16:21;12.57;;;5.59;;
15510;SDS011;7857;52.386;6.040;2023-07-02T01:17:22;13.26;;;5.34;;
15510;SDS011;7857;52.386;6.040;2023-07-02T01:18:22;15.76;;;6.07;;
15510;SDS011;7857;52.386;6.040;2023-07-02T01:19:30;11.19;;;5.59;;
15510;SDS011;7857;52.386;6.040;2023-07-02T01:20:23;15.30;;;5.93;;
15510;SDS011;7857;52.386;6.040;2023-07-02T01:21:24;12.00;;;5.80;;
15510;SDS011;7857;52.386;6.040;2023-07-02T01:22:25;11.00;;;5.67;;
15510;SDS011;7857;52.386;6.040;2023-07-02T01:23:25;14.01;;;6.15;;
15510;SDS011;7857;52.386;6.040;2023-07-02T01:24:25;13.10;;;5.44;;
15510;SDS011;7857;52.386;6.040;2023-07-02T01:25:26;14.93;;;5.66;;
15510;SDS011;7857;52.386;6.040;2023-07-02T01:26:27;12.90;;;5.75;;
15510;SDS011;7857;52.386;6.040;2023-07-02T01:27:27;15.89;;;6.09;;
15510;SDS011;7857;52.386;6.040;2023-07-02T01:28:34;14.32;;;6.07;;
15510;SDS011;7857;52.386;6.040;2023-07-02T01:29:28;17.63;;;5.77;;
15510;SDS011;7857;52.386;6.040;2023-07-02T01:30:29;15.72;;;6.42;;
15510;SDS011;7857;52.386;6.040;2023-07-02T01:31:29;12.76;;;5.50;;
15510;SDS011;7857;52.386;6.040;2023-07-02T01:32:30;12.04;;;5.95;;
15510;SDS011;7857;52.386;6.040;2023-07-02T01:33:30;12.12;;;5.69;;
15510;SDS011;7857;52.386;6.040;2023-07-02T01:34:31;13.61;;;5.64;;
15510;SDS011;7857;52.386;6.040;2023-07-02T01:35:32;17.40;;;6.45;;
15510;SDS011;7857;52.386;6.040;2023-07-02T01:36:32;16.70;;;5.98;;
15510;SDS011;7857;52.386;6.040;2023-07-02T01:37:33;17.79;;;6.06;;
15510;SDS011;7857;52.386;6.040;2023-07-02T01:38:33;17.15;;;6.54;;
15510;SDS011;7857;52.386;6.040;2023-07-02T01:39:34;15.18;;;5.80;;
15510;SDS011;7857;52.386;6.040;2023-07-02T01:40:34;15.34;;;6.13;;
15510;SDS011;7857;52.386;6.040;2023-07-02T01:41:36;16.87;;;6.37;;
15510;SDS011;7857;52.386;6.040;2023-07-02T01:42:35;15.90;;;6.19;;
15510;SDS011;7857;52.386;6.040;2023-07-02T01:43:36;15.97;;;6.82;;
15510;SDS011;7857;52.386;6.040;2023-07-02T01:44:36;19.57;;;7.77;;
15510;SDS011;7857;52.386;6.040;2023-07-02T01:45:37;17.28;;;6.97;;
15510;SDS011;7857;52.386;6.040;2023-07-02T01:46:37;19.79;;;6.69;;
15510;SDS011;7857;52.386;6.040;2023-07-02T01:47:37;18.51;;;6.47;;
15510;SDS011;7857;52.386;6.040;2023-07-02T01:48:38;13.65;;;6.39;;
15510;SDS011;7857;52.386;6.040;2023-07-02T01:49:38;16.23;;;6.45;;
15510;SDS011;7857;52.386;6.040;2023-07-02T01:50:39;17.94;;;6.67;;
15510;SDS011;7857;52.386;6.040;2023-07-02T01:51:40;13.09;;;6.07;;
15510;SDS011;7857;52.386;6.040;2023-07-02T01:52:40;16.65;;;6.09;;
15510;SDS011;7857;52.386;6.040;2023-07-02T01:53:41;14.53;;;6.39;;
15510;SDS011;7857;52.386;6.040;2023-07-02T01:54:41;19.77;;;6.34;;
15510;SDS011;7857;52.386;6.040;2023-07-02T01:55:42;14.43;;;6.26;;
15510;SDS011;7857;52.386;6.040;2023-07-02T01:56:43;13.32;;;5.88;;
15510;SDS011;7857;52.386;6.040;2023-07-02T01:57:43;15.63;;;5.65;;
15510;SDS011;7857;52.386;6.040;2023-07-02T01:58:44;15.22;;;6.70;;
15510;SDS011;7857;52.386;6.040;2023-07-02T01:59:45;15.93;;;6.33;;
15510;SDS011;7857;52.386;6.040;2023-07-02T02:00:46;15.76;;;6.47;;
15510;SDS011;7857;52.386;6.040;2023-07-02T02:01:46;18.62;;;7.28;;
15510;SDS011;7857;52.386;6.040;2023-07-02T02:02:47;16.03;;;6.68;;
15510;SDS011;7857;52.386;6.040;2023-07-02T02:03:47;15.95;;;6.43;;
15510;SDS011;7857;52.386;6.040;2023-07-02T02:04:48;16.04;;;6.57;;
15510;SDS011;7857;52.386;6.040;2023-07-02T02:05:48;17.35;;;6.66;;
15510;SDS011;7857;52.386;6.040;2023-07-02T02:06:49;19.68;;;6.49;;
15510;SDS011;7857;52.386;6.040;2023-07-02T02:07:49;13.99;;;6.01;;
15510;SDS011;7857;52.386;6.040;2023-07-02T02:08:49;21.94;;;7.72;;
15510;SDS011;7857;52.386;6.040;2023-07-02T02:09:50;18.10;;;6.43;;
15510;SDS011;7857;52.386;6.040;2023-07-02T02:10:50;14.07;;;6.47;;
15510;SDS011;7857;52.386;6.040;2023-07-02T02:11:51;16.03;;;6.92;;
15510;SDS011;7857;52.386;6.040;2023-07-02T02:12:51;14.84;;;6.62;;
15510;SDS011;7857;52.386;6.040;2023-07-02T02:13:52;15.73;;;6.39;;
15510;SDS011;7857;52.386;6.040;2023-07-02T02:14:52;17.47;;;6.99;;
15510;SDS011;7857;52.386;6.040;2023-07-02T02:15:53;17.89;;;6.57;;
15510;SDS011;7857;52.386;6.040;2023-07-02T02:16:53;18.23;;;7.40;;
15510;SDS011;7857;52.386;6.040;2023-07-02T02:17:54;18.10;;;6.49;;
15510;SDS011;7857;52.386;6.040;2023-07-02T02:18:55;13.77;;;6.58;;
15510;SDS011;7857;52.386;6.040;2023-07-02T02:19:55;14.14;;;6.11;;
15510;SDS011;7857;52.386;6.040;2023-07-02T02:20:56;20.76;;;7.11;;
15510;SDS011;7857;52.386;6.040;2023-07-02T02:21:56;20.80;;;7.18;;
15510;SDS011;7857;52.386;6.040;2023-07-02T02:22:57;18.95;;;6.87;;
15510;SDS011;7857;52.386;6.040;2023-07-02T02:23:57;20.27;;;7.08;;
15510;SDS011;7857;52.386;6.040;2023-07-02T02:24:58;18.61;;;6.48;;
15510;SDS011;7857;52.386;6.040;2023-07-02T02:25:59;16.84;;;6.48;;
15510;SDS011;7857;52.386;6.040;2023-07-02T02:26:59;14.34;;;6.76;;
15510;SDS011;7857;52.386;6.040;2023-07-02T02:27:59;19.26;;;6.54;;
15510;SDS011;7857;52.386;6.040;2023-07-02T02:29:00;18.31;;;7.06;;
15510;SDS011;7857;52.386;6.040;2023-07-02T02:30:00;14.94;;;7.41;;
15510;SDS011;7857;52.386;6.040;2023-07-02T02:31:00;20.93;;;7.53;;
15510;SDS011;7857;52.386;6.040;2023-07-02T02:32:02;16.30;;;7.29;;
15510;SDS011;7857;52.386;6.040;2023-07-02T02:33:02;20.12;;;6.98;;
15510;SDS011;7857;52.386;6.040;2023-07-02T02:34:03;20.00;;;7.57;;
15510;SDS011;7857;52.386;6.040;2023-07-02T02:35:02;19.51;;;6.74;;
15510;SDS011;7857;52.386;6.040;2023-07-02T02:36:03;15.77;;;6.93;;
15510;SDS011;7857;52.386;6.040;2023-07-02T02:37:03;16.61;;;6.63;;
15510;SDS011;7857;52.386;6.040;2023-07-02T02:38:04;21.35;;;7.23;;
15510;SDS011;7857;52.386;6.040;2023-07-02T02:39:05;19.29;;;7.01;;
15510;SDS011;7857;52.386;6.040;2023-07-02T02:40:06;15.21;;;6.87;;
15510;SDS011;7857;52.386;6.040;2023-07-02T02:41:06;18.93;;;7.97;;
15510;SDS011;7857;52.386;6.040;2023-07-02T02:42:06;20.56;;;7.32;;
15510;SDS011;7857;52.386;6.040;2023-07-02T02:43:07;15.94;;;7.20;;
15510;SDS011;7857;52.386;6.040;2023-07-02T02:44:08;24.58;;;8.22;;
15510;SDS011;7857;52.386;6.040;2023-07-02T02:45:09;24.45;;;7.90;;
15510;SDS011;7857;52.386;6.040;2023-07-02T02:46:10;22.92;;;7.74;;
15510;SDS011;7857;52.386;6.040;2023-07-02T02:47:11;22.15;;;7.97;;
15510;SDS011;7857;52.386;6.040;2023-07-02T02:48:12;17.98;;;7.69;;
15510;SDS011;7857;52.386;6.040;2023-07-02T02:49:12;18.42;;;7.93;;
15510;SDS011;7857;52.386;6.040;2023-07-02T02:50:13;17.36;;;7.60;;
15510;SDS011;7857;52.386;6.040;2023-07-02T02:51:12;17.51;;;6.84;;
15510;SDS011;7857;52.386;6.040;2023-07-02T02:52:13;16.97;;;6.76;;
15510;SDS011;7857;52.386;6.040;2023-07-02T02:53:14;18.62;;;6.92;;
15510;SDS011;7857;52.386;6.040;2023-07-02T02:54:15;18.24;;;7.02;;
15510;SDS011;7857;52.386;6.040;2023-07-02T02:55:16;18.82;;;7.63;;
15510;SDS011;7857;52.386;6.040;2023-07-02T02:56:16;18.53;;;7.02;;
15510;SDS011;7857;52.386;6.040;2023-07-02T02:57:17;17.44;;;7.13;;
15510;SDS011;7857;52.386;6.040;2023-07-02T02:58:17;15.93;;;7.09;;
15510;SDS011;7857;52.386;6.040;2023-07-02T02:59:18;18.91;;;6.86;;
15510;SDS011;7857;52.386;6.040;2023-07-02T03:00:18;19.55;;;6.89;;
15510;SDS011;7857;52.386;6.040;2023-07-02T03:01:19;19.56;;;7.33;;
15510;SDS011;7857;52.386;6.040;2023-07-02T03:02:20;18.83;;;6.60;;
15510;SDS011;7857;52.386;6.040;2023-07-02T03:03:20;17.06;;;6.85;;
15510;SDS011;7857;52.386;6.040;2023-07-02T03:04:21;18.39;;;6.81;;
15510;SDS011;7857;52.386;6.040;2023-07-02T03:05:21;17.95;;;6.70;;
15510;SDS011;7857;52.386;6.040;2023-07-02T03:06:22;17.47;;;6.72;;
15510;SDS011;7857;52.386;6.040;2023-07-02T03:07:22;18.63;;;7.37;;
15510;SDS011;7857;52.386;6.040;2023-07-02T03:08:23;15.00;;;6.24;;
15510;SDS011;7857;52.386;6.040;2023-07-02T03:09:23;25.36;;;8.11;;
15510;SDS011;7857;52.386;6.040;2023-07-02T03:10:24;19.20;;;7.39;;
15510;SDS011;7857;52.386;6.040;2023-07-02T03:11:25;15.47;;;6.87;;
15510;SDS011;7857;52.386;6.040;2023-07-02T03:12:25;19.29;;;7.42;;
15510;SDS011;7857;52.386;6.040;2023-07-02T03:13:26;16.98;;;7.41;;
15510;SDS011;7857;52.386;6.040;2023-07-02T03:14:26;17.79;;;6.69;;
15510;SDS011;7857;52.386;6.040;2023-07-02T03:15:27;18.27;;;6.99;;
15510;SDS011;7857;52.386;6.040;2023-07-02T03:16:28;21.21;;;6.89;;
15510;SDS011;7857;52.386;6.040;2023-07-02T03:17:28;14.81;;;5.52;;
15510;SDS011;7857;52.386;6.040;2023-07-02T03:18:29;23.60;;;7.38;;
15510;SDS011;7857;52.386;6.040;2023-07-02T03:19:29;19.40;;;8.00;;
15510;SDS011;7857;52.386;6.040;2023-07-02T03:20:30;20.26;;;7.15;;
15510;SDS011;7857;52.386;6.040;2023-07-02T03:21:31;19.20;;;7.36;;
15510;SDS011;7857;52.386;6.040;2023-07-02T03:22:32;18.56;;;7.01;;
15510;SDS011;7857;52.386;6.040;2023-07-02T03:23:32;19.58;;;7.16;;
15510;SDS011;7857;52.386;6.040;2023-07-02T03:24:32;16.91;;;7.38;;
15510;SDS011;7857;52.386;6.040;2023-07-02T03:25:33;20.62;;;6.84;;
15510;SDS011;7857;52.386;6.040;2023-07-02T03:26:34;16.57;;;7.25;;
15510;SDS011;7857;52.386;6.040;2023-07-02T03:27:34;19.26;;;7.60;;
15510;SDS011;7857;52.386;6.040;2023-07-02T03:28:35;18.08;;;7.30;;
15510;SDS011;7857;52.386;6.040;2023-07-02T03:29:36;22.17;;;7.57;;
15510;SDS011;7857;52.386;6.040;2023-07-02T03:30:36;18.91;;;6.91;;
15510;SDS011;7857;52.386;6.040;2023-07-02T03:31:36;20.36;;;7.27;;
15510;SDS011;7857;52.386;6.040;2023-07-02T03:32:37;19.93;;;7.14;;
15510;SDS011;7857;52.386;6.040;2023-07-02T03:33:38;19.82;;;7.17;;
15510;SDS011;7857;52.386;6.040;2023-07-02T03:34:39;16.25;;;6.91;;
15510;SDS011;7857;52.386;6.040;2023-07-02T03:35:40;17.65;;;6.88;;
15510;SDS011;7857;52.386;6.040;2023-07-02T03:36:40;18.70;;;7.13;;
15510;SDS011;7857;52.386;6.040;2023-07-02T03:37:40;19.84;;;7.06;;
15510;SDS011;7857;52.386;6.040;2023-07-02T03:38:41;14.47;;;6.29;;
15510;SDS011;7857;52.386;6.040;2023-07-02T03:39:42;16.31;;;6.73;;
15510;SDS011;7857;52.386;6.040;2023-07-02T03:40:42;19.08;;;7.30;;
15510;SDS011;7857;52.386;6.040;2023-07-02T03:41:43;17.80;;;7.22;;
15510;SDS011;7857;52.386;6.040;2023-07-02T03:42:43;18.22;;;6.99;;
15510;SDS011;7857;52.386;6.040;2023-07-02T03:43:44;23.12;;;7.42;;
15510;SDS011;7857;52.386;6.040;2023-07-02T03:44:45;17.65;;;7.25;;
15510;SDS011;7857;52.386;6.040;2023-07-02T03:45:46;18.11;;;7.80;;
15510;SDS011;7857;52.386;6.040;2023-07-02T03:46:47;20.38;;;7.36;;
15510;SDS011;7857;52.386;6.040;2023-07-02T03:47:48;18.29;;;6.94;;
15510;SDS011;7857;52.386;6.040;2023-07-02T03:48:48;16.58;;;7.55;;
15510;SDS011;7857;52.386;6.040;2023-07-02T03:49:49;19.53;;;6.97;;
15510;SDS011;7857;52.386;6.040;2023-07-02T03:50:49;15.22;;;6.62;;
15510;SDS011;7857;52.386;6.040;2023-07-02T03:51:50;18.95;;;7.50;;
15510;SDS011;7857;52.386;6.040;2023-07-02T03:52:50;16.35;;;7.47;;
15510;SDS011;7857;52.386;6.040;2023-07-02T03:53:51;17.59;;;7.39;;
15510;SDS011;7857;52.386;6.040;2023-07-02T03:54:51;18.74;;;7.23;;
15510;SDS011;7857;52.386;6.040;2023-07-02T03:55:52;16.72;;;6.40;;
15510;SDS011;7857;52.386;6.040;2023-07-02T03:56:52;17.28;;;7.32;;
15510;SDS011;7857;52.386;6.040;2023-07-02T03:57:52;18.14;;;7.32;;
15510;SDS011;7857;52.386;6.040;2023-07-02T03:58:53;21.86;;;7.16;;
15510;SDS011;7857;52.386;6.040;2023-07-02T03:59:53;16.18;;;6.64;;
15510;SDS011;7857;52.386;6.040;2023-07-02T04:00:54;24.52;;;7.30;;
15510;SDS011;7857;52.386;6.040;2023-07-02T04:01:54;19.34;;;7.84;;
15510;SDS011;7857;52.386;6.040;2023-07-02T04:02:55;18.39;;;7.27;;
15510;SDS011;7857;52.386;6.040;2023-07-02T04:03:56;19.80;;;7.36;;
15510;SDS011;7857;52.386;6.040;2023-07-02T04:04:57;18.04;;;6.97;;
15510;SDS011;7857;52.386;6.040;2023-07-02T04:05:58;16.59;;;6.67;;
15510;SDS011;7857;52.386;6.040;2023-07-02T04:06:58;19.55;;;7.03;;
15510;SDS011;7857;52.386;6.040;2023-07-02T04:07:59;17.97;;;7.27;;
15510;SDS011;7857;52.386;6.040;2023-07-02T04:09:00;21.39;;;7.32;;
15510;SDS011;7857;52.386;6.040;2023-07-02T04:10:01;20.37;;;6.74;;
15510;SDS011;7857;52.386;6.040;2023-07-02T04:11:01;21.26;;;6.88;;
15510;SDS011;7857;52.386;6.040;2023-07-02T04:12:03;13.62;;;7.02;;
15510;SDS011;7857;52.386;6.040;2023-07-02T04:13:02;20.26;;;7.14;;
15510;SDS011;7857;52.386;6.040;2023-07-02T04:14:03;18.17;;;7.19;;
15510;SDS011;7857;52.386;6.040;2023-07-02T04:15:03;17.94;;;7.03;;
15510;SDS011;7857;52.386;6.040;2023-07-02T04:16:04;15.46;;;6.47;;
15510;SDS011;7857;52.386;6.040;2023-07-02T04:17:05;17.49;;;7.14;;
15510;SDS011;7857;52.386;6.040;2023-07-02T04:18:04;22.94;;;7.75;;
15510;SDS011;7857;52.386;6.040;2023-07-02T04:19:05;20.09;;;7.35;;
15510;SDS011;7857;52.386;6.040;2023-07-02T04:20:06;18.40;;;7.03;;
15510;SDS011;7857;52.386;6.040;2023-07-02T04:21:06;18.28;;;6.57;;
15510;SDS011;7857;52.386;6.040;2023-07-02T04:22:06;16.87;;;7.14;;
15510;SDS011;7857;52.386;6.040;2023-07-02T04:23:07;21.09;;;7.24;;
15510;SDS011;7857;52.386;6.040;2023-07-02T04:24:07;17.03;;;6.95;;
15510;SDS011;7857;52.386;6.040;2023-07-02T04:25:08;22.43;;;7.38;;
15510;SDS011;7857;52.386;6.040;2023-07-02T04:26:08;16.61;;;7.51;;
15510;SDS011;7857;52.386;6.040;2023-07-02T04:27:09;17.72;;;8.33;;
15510;SDS011;7857;52.386;6.040;2023-07-02T04:28:10;19.22;;;7.06;;
15510;SDS011;7857;52.386;6.040;2023-07-02T04:29:11;15.20;;;6.82;;
15510;SDS011;7857;52.386;6.040;2023-07-02T04:30:12;19.53;;;7.11;;
15510;SDS011;7857;52.386;6.040;2023-07-02T04:31:12;23.16;;;7.86;;
15510;SDS011;7857;52.386;6.040;2023-07-02T04:32:13;18.36;;;7.32;;
15510;SDS011;7857;52.386;6.040;2023-07-02T04:33:13;18.50;;;6.95;;
15510;SDS011;7857;52.386;6.040;2023-07-02T04:34:14;20.70;;;7.76;;
15510;SDS011;7857;52.386;6.040;2023-07-02T04:35:15;18.46;;;6.79;;
15510;SDS011;7857;52.386;6.040;2023-07-02T04:36:16;16.09;;;6.79;;
15510;SDS011;7857;52.386;6.040;2023-07-02T04:37:16;16.72;;;6.61;;
15510;SDS011;7857;52.386;6.040;2023-07-02T04:38:17;21.16;;;7.29;;
15510;SDS011;7857;52.386;6.040;2023-07-02T04:39:18;19.21;;;6.89;;
15510;SDS011;7857;52.386;6.040;2023-07-02T04:40:19;15.50;;;6.80;;
15510;SDS011;7857;52.386;6.040;2023-07-02T04:41:19;18.70;;;7.12;;
15510;SDS011;7857;52.386;6.040;2023-07-02T04:42:20;21.15;;;7.67;;
15510;SDS011;7857;52.386;6.040;2023-07-02T04:43:21;15.67;;;6.77;;
15510;SDS011;7857;52.386;6.040;2023-07-02T04:44:21;20.99;;;7.19;;
15510;SDS011;7857;52.386;6.040;2023-07-02T04:45:22;19.44;;;6.95;;
15510;SDS011;7857;52.386;6.040;2023-07-02T04:46:22;18.16;;;6.78;;
15510;SDS011;7857;52.386;6.040;2023-07-02T04:47:23;17.83;;;6.75;;
15510;SDS011;7857;52.386;6.040;2023-07-02T04:48:23;18.11;;;7.12;;
15510;SDS011;7857;52.386;6.040;2023-07-02T04:49:23;17.85;;;7.45;;
15510;SDS011;7857;52.386;6.040;2023-07-02T04:50:24;20.82;;;7.87;;
15510;SDS011;7857;52.386;6.040;2023-07-02T04:51:24;17.09;;;6.92;;
15510;SDS011;7857;52.386;6.040;2023-07-02T04:52:25;17.21;;;6.64;;
15510;SDS011;7857;52.386;6.040;2023-07-02T04:53:26;21.83;;;7.04;;
15510;SDS011;7857;52.386;6.040;2023-07-02T04:54:26;19.28;;;7.57;;
15510;SDS011;7857;52.386;6.040;2023-07-02T04:55:27;18.46;;;6.95;;
15510;SDS011;7857;52.386;6.040;2023-07-02T04:56:28;14.83;;;7.23;;
15510;SDS011;7857;52.386;6.040;2023-07-02T04:57:29;16.73;;;6.69;;
15510;SDS011;7857;52.386;6.040;2023-07-02T04:58:29;16.62;;;6.87;;
15510;SDS011;7857;52.386;6.040;2023-07-02T04:59:30;18.10;;;6.26;;
15510;SDS011;7857;52.386;6.040;2023-07-02T05:00:30;19.06;;;7.42;;
15510;SDS011;7857;52.386;6.040;2023-07-02T05:01:30;17.22;;;7.25;;
15510;SDS011;7857;52.386;6.040;2023-07-02T05:02:31;18.26;;;6.67;;
15510;SDS011;7857;52.386;6.040;2023-07-02T05:03:31;20.43;;;7.95;;
15510;SDS011;7857;52.386;6.040;2023-07-02T05:04:32;19.02;;;7.23;;
15510;SDS011;7857;52.386;6.040;2023-07-02T05:05:32;16.26;;;7.16;;
15510;SDS011;7857;52.386;6.040;2023-07-02T05:06:33;19.76;;;7.18;;
15510;SDS011;7857;52.386;6.040;2023-07-02T05:07:34;19.97;;;6.96;;
15510;SDS011;7857;52.386;6.040;2023-07-02T05:08:35;18.08;;;7.11;;
15510;SDS011;7857;52.386;6.040;2023-07-02T05:09:36;18.65;;;6.78;;
15510;SDS011;7857;52.386;6.040;2023-07-02T05:10:36;22.19;;;7.37;;
15510;SDS011;7857;52.386;6.040;2023-07-02T05:11:37;18.29;;;6.89;;
15510;SDS011;7857;52.386;6.040;2023-07-02T05:12:37;21.09;;;7.09;;
15510;SDS011;7857;52.386;6.040;2023-07-02T05:13:38;23.32;;;7.81;;
15510;SDS011;7857;52.386;6.040;2023-07-02T05:14:38;16.31;;;7.12;;
15510;SDS011;7857;52.386;6.040;2023-07-02T05:15:39;14.60;;;6.41;;
15510;SDS011;7857;52.386;6.040;2023-07-02T05:16:39;19.09;;;7.53;;
15510;SDS011;7857;52.386;6.040;2023-07-02T05:17:40;20.47;;;7.86;;
15510;SDS011;7857;52.386;6.040;2023-07-02T05:18:48;17.44;;;6.73;;
15510;SDS011;7857;52.386;6.040;2023-07-02T05:19:49;18.96;;;6.96;;
15510;SDS011;7857;52.386;6.040;2023-07-02T05:20:49;19.13;;;7.31;;
15510;SDS011;7857;52.386;6.040;2023-07-02T05:21:49;16.84;;;7.46;;
15510;SDS011;7857;52.386;6.040;2023-07-02T05:22:50;15.31;;;6.85;;
15510;SDS011;7857;52.386;6.040;2023-07-02T05:23:51;16.84;;;6.41;;
15510;SDS011;7857;52.386;6.040;2023-07-02T05:24:51;17.53;;;7.08;;
15510;SDS011;7857;52.386;6.040;2023-07-02T05:25:52;18.92;;;7.11;;
15510;SDS011;7857;52.386;6.040;2023-07-02T05:26:53;16.41;;;6.87;;
15510;SDS011;7857;52.386;6.040;2023-07-02T05:27:53;19.44;;;7.53;;
15510;SDS011;7857;52.386;6.040;2023-07-02T05:28:54;18.54;;;7.08;;
15510;SDS011;7857;52.386;6.040;2023-07-02T05:29:54;16.04;;;7.20;;
15510;SDS011;7857;52.386;6.040;2023-07-02T05:30:54;19.92;;;7.24;;
15510;SDS011;7857;52.386;6.040;2023-07-02T05:31:55;19.77;;;7.36;;
15510;SDS011;7857;52.386;6.040;2023-07-02T05:32:56;18.07;;;6.62;;
15510;SDS011;7857;52.386;6.040;2023-07-02T05:33:57;17.50;;;6.45;;
15510;SDS011;7857;52.386;6.040;2023-07-02T05:34:57;17.99;;;6.87;;
15510;SDS011;7857;52.386;6.040;2023-07-02T05:35:58;15.75;;;6.32;;
15510;SDS011;7857;52.386;6.040;2023-07-02T05:36:59;20.04;;;6.88;;
15510;SDS011;7857;52.386;6.040;2023-07-02T05:37:59;19.79;;;6.80;;
15510;SDS011;7857;52.386;6.040;2023-07-02T05:38:59;18.89;;;7.22;;
15510;SDS011;7857;52.386;6.040;2023-07-02T05:39:59;18.79;;;6.64;;
15510;SDS011;7857;52.386;6.040;2023-07-02T05:41:01;21.35;;;7.41;;
15510;SDS011;7857;52.386;6.040;2023-07-02T05:42:00;15.71;;;6.72;;
15510;SDS011;7857;52.386;6.040;2023-07-02T05:43:01;19.08;;;6.85;;
15510;SDS011;7857;52.386;6.040;2023-07-02T05:44:01;18.34;;;7.36;;
15510;SDS011;7857;52.386;6.040;2023-07-02T05:45:03;19.60;;;6.51;;
15510;SDS011;7857;52.386;6.040;2023-07-02T05:46:03;23.37;;;7.84;;
15510;SDS011;7857;52.386;6.040;2023-07-02T05:47:03;17.02;;;7.08;;
15510;SDS011;7857;52.386;6.040;2023-07-02T05:48:03;19.05;;;7.21;;
15510;SDS011;7857;52.386;6.040;2023-07-02T05:49:04;19.25;;;7.42;;
15510;SDS011;7857;52.386;6.040;2023-07-02T05:50:05;14.88;;;6.84;;
15510;SDS011;7857;52.386;6.040;2023-07-02T05:51:05;17.08;;;6.84;;
15510;SDS011;7857;52.386;6.040;2023-07-02T05:52:05;15.43;;;6.53;;
15510;SDS011;7857;52.386;6.040;2023-07-02T05:53:06;23.33;;;7.79;;
15510;SDS011;7857;52.386;6.040;2023-07-02T05:54:06;13.36;;;5.98;;
15510;SDS011;7857;52.386;6.040;2023-07-02T05:55:07;19.86;;;7.53;;
15510;SDS011;7857;52.386;6.040;2023-07-02T05:56:08;17.77;;;6.53;;
15510;SDS011;7857;52.386;6.040;2023-07-02T05:57:08;15.54;;;6.54;;
15510;SDS011;7857;52.386;6.040;2023-07-02T05:58:09;18.43;;;6.92;;
15510;SDS011;7857;52.386;6.040;2023-07-02T05:59:09;20.66;;;6.83;;
15510;SDS011;7857;52.386;6.040;2023-07-02T06:00:10;16.78;;;6.94;;
15510;SDS011;7857;52.386;6.040;2023-07-02T06:01:10;16.59;;;6.53;;
15510;SDS011;7857;52.386;6.040;2023-07-02T06:02:11;22.67;;;7.35;;
15510;SDS011;7857;52.386;6.040;2023-07-02T06:03:12;20.52;;;7.00;;
15510;SDS011;7857;52.386;6.040;2023-07-02T06:04:11;20.80;;;7.31;;
15510;SDS011;7857;52.386;6.040;2023-07-02T06:05:11;19.33;;;6.74;;
15510;SDS011;7857;52.386;6.040;2023-07-02T06:06:12;20.22;;;7.58;;
15510;SDS011;7857;52.386;6.040;2023-07-02T06:07:12;22.94;;;7.50;;
15510;SDS011;7857;52.386;6.040;2023-07-02T06:08:12;15.99;;;6.56;;